createdAt,value
2017-11-06T00:05:19.261Z,64.9
2017-11-06T00:16:19.508Z,65.1
2017-11-06T00:27:20.078Z,65.7
2017-11-06T00:38:19.294Z,65.1
2017-11-06T00:49:19.322Z,66.2
2017-11-06T01:00:19.207Z,66.5
2017-11-06T01:11:18.958Z,66.6
2017-11-06T01:22:19.544Z,67.1
2017-11-06T01:33:19.761Z,66.8
2017-11-06T01:44:19.082Z,67.2
2017-11-06T01:55:19.228Z,67.2
2017-11-06T02:06:19.958Z,67.8
2017-11-06T02:17:20.570Z,68.4
2017-11-06T02:28:19.434Z,68.6
2017-11-06T02:39:19.539Z,68.3
2017-11-06T02:50:19.558Z,68.5
2017-11-06T03:01:19.428Z,68.5
2017-11-06T03:12:25.216Z,68.9
2017-11-06T03:23:18.970Z,69.5
2017-11-06T03:34:19.302Z,69.8
2017-11-06T03:45:19.403Z,70
2017-11-06T03:56:20.145Z,70.3
2017-11-06T04:07:19.612Z,70.3
2017-11-06T04:18:21.118Z,70.9
2017-11-06T04:29:19.551Z,71.3
2017-11-06T04:40:20.129Z,71.2
2017-11-06T04:51:19.810Z,72.3
2017-11-06T04:57:19.422Z,71.5
2017-11-06T05:03:20.159Z,72.3
2017-11-06T05:09:19.152Z,72.4
2017-11-06T05:15:19.649Z,71.8
2017-11-06T05:21:19.173Z,72.2
2017-11-06T05:27:19.527Z,72.1
2017-11-06T05:33:19.464Z,73
2017-11-06T05:39:19.878Z,72.2
2017-11-06T05:45:19.655Z,72.4
2017-11-06T05:51:19.769Z,72.5
2017-11-06T05:57:20.200Z,72.9
2017-11-06T06:03:19.799Z,73.1
2017-11-06T06:09:19.597Z,72.9
2017-11-06T06:15:19.909Z,72.9
2017-11-06T06:21:21.305Z,72.7
2017-11-06T06:27:19.813Z,72.7
2017-11-06T06:33:19.403Z,73
2017-11-06T06:39:19.656Z,72.7
2017-11-06T06:45:19.224Z,72.8
2017-11-06T06:51:19.957Z,73.5
2017-11-06T06:57:19.427Z,73.1
2017-11-06T07:03:19.248Z,73.9
2017-11-06T07:09:19.304Z,73.8
2017-11-06T07:15:20.000Z,73.6
2017-11-06T07:21:19.959Z,73.9
2017-11-06T07:27:19.612Z,74.1
2017-11-06T07:33:20.063Z,74.2
2017-11-06T07:39:19.168Z,74.6
2017-11-06T07:45:18.931Z,74.8
2017-11-06T07:51:19.978Z,75.2
2017-11-06T07:57:19.542Z,75.5
2017-11-06T08:08:19.778Z,75.2
2017-11-06T08:19:19.608Z,75.2
2017-11-06T08:30:19.671Z,76
2017-11-06T08:41:19.730Z,75.9
2017-11-06T08:52:19.009Z,76.2
2017-11-06T09:03:19.207Z,76.7
2017-11-06T09:14:19.082Z,77.1
2017-11-06T09:25:20.035Z,76.8
2017-11-06T09:36:19.695Z,76.9
2017-11-06T09:47:19.258Z,77.1
2017-11-06T09:58:19.245Z,77.4
2017-11-06T10:09:19.354Z,78
2017-11-06T10:20:19.745Z,77.5
2017-11-06T10:31:19.768Z,77.8
2017-11-06T10:42:19.655Z,78
2017-11-06T10:53:19.851Z,77.9
2017-11-06T11:04:19.308Z,78.1
2017-11-06T11:15:19.640Z,77.7
2017-11-06T11:26:19.477Z,78.3
2017-11-06T11:37:18.848Z,78.4
2017-11-06T11:48:19.398Z,78.1
2017-11-06T11:59:18.999Z,78.1
2017-11-06T12:10:19.752Z,78
2017-11-06T12:21:19.872Z,77.9
2017-11-06T12:32:20.078Z,78.1
2017-11-06T12:43:19.075Z,78.8
2017-11-06T12:54:19.788Z,78.1
2017-11-06T13:05:19.241Z,78.1
2017-11-06T13:16:19.555Z,78.2
2017-11-06T13:27:19.866Z,78.1
2017-11-06T13:38:19.294Z,77.3
2017-11-06T13:49:19.487Z,77.8
2017-11-06T14:00:19.406Z,77.2
2017-11-06T14:11:19.729Z,77.1
2017-11-06T14:22:19.325Z,77
2017-11-06T14:33:19.736Z,76.7
2017-11-06T14:44:19.587Z,76.4
2017-11-06T14:55:19.909Z,76.4
2017-11-06T15:06:22.638Z,72.4
2017-11-06T15:17:19.072Z,71.1
2017-11-06T15:28:19.897Z,69.2
2017-11-06T15:39:19.604Z,69.8
2017-11-06T15:50:20.060Z,69.7
2017-11-06T16:01:20.136Z,69.2
2017-11-06T16:12:19.609Z,68.9
2017-11-06T16:23:19.550Z,68.7
2017-11-06T16:34:19.233Z,68.3
2017-11-06T16:45:19.283Z,67.7
2017-11-06T16:56:19.645Z,67.6
2017-11-06T17:07:19.189Z,67.5
2017-11-06T17:18:19.051Z,67.5
2017-11-06T17:29:18.989Z,67.3
2017-11-06T17:40:19.963Z,66.5
2017-11-06T17:51:19.552Z,67.5
2017-11-06T18:02:19.100Z,66.8
2017-11-06T18:13:19.900Z,66.2
2017-11-06T18:24:19.118Z,67
2017-11-06T18:35:19.636Z,66.2
2017-11-06T18:46:19.138Z,66.6
2017-11-06T18:57:19.601Z,66.5
2017-11-06T19:08:19.821Z,66
2017-11-06T19:19:19.115Z,66
2017-11-06T19:30:19.601Z,66
2017-11-06T19:41:19.491Z,65.4
2017-11-06T19:52:19.420Z,65.7
2017-11-06T20:03:19.235Z,65.9
2017-11-06T20:14:19.743Z,65.4
2017-11-06T20:25:19.465Z,65.3
2017-11-06T20:36:19.292Z,65.3
2017-11-06T20:47:19.048Z,64.8
2017-11-06T20:58:19.209Z,64.7
2017-11-06T21:09:18.879Z,64.4
2017-11-06T21:20:19.758Z,64.8
2017-11-06T21:31:19.213Z,64.9
2017-11-06T21:42:19.004Z,64.4
2017-11-06T21:53:19.743Z,64.6
2017-11-06T22:04:19.434Z,64.3
2017-11-06T22:15:19.422Z,63.9
2017-11-06T22:26:19.649Z,64.4
2017-11-06T22:37:19.624Z,64.3
2017-11-06T22:48:19.498Z,64.5
2017-11-06T22:59:19.559Z,64
2017-11-06T23:10:19.404Z,64
2017-11-06T23:21:19.411Z,64
2017-11-06T23:32:19.811Z,63.7
2017-11-06T23:43:18.794Z,64.1
2017-11-06T23:54:19.632Z,63.1
